Time;durP1;ratioP1;P1;durP2;ratioP2;P2;SDS_P1;SDS_P2;PMS_P1;PMS_P2;Temp;Humidity;BMP_temperature;BMP_pressure;BME280_temperature;BME280_humidity;BME280_pressure;Samples;Min_cycle;Max_cycle;Signal;HPM_P1;HPM_P2
2022/02/06 00:00:37;;;;;;;;;;;4.10;92.10;;;;;;5022708;28;20227;-71
2022/02/06 00:03:03;;;;;;;;;;;4.20;92.00;;;;;;5022899;28;19917;-71
2022/02/06 00:05:30;;;;;;;;;;;4.20;91.90;;;;;;5005873;28;20196;-71
2022/02/06 00:07:56;;;;;;;;;;;4.20;91.90;;;;;;5022951;28;20093;-71
2022/02/06 00:10:22;;;;;;;;;;;4.10;91.90;;;;;;5021742;28;20145;-71
2022/02/06 00:12:48;;;;;;;;;;;4.10;91.90;;;;;;5022596;28;19968;-71
2022/02/06 00:15:14;;;;;;;;;;;4.10;91.80;;;;;;5022901;28;19921;-71
2022/02/06 00:17:40;;;;;;;;;;;4.10;91.80;;;;;;5022654;28;20104;-71
2022/02/06 00:20:06;;;;;;;;;;;4.10;91.70;;;;;;5005222;28;19909;-71
2022/02/06 00:22:37;;;;;;;;;;;4.10;91.70;;;;;;5022509;28;19948;-71
2022/02/06 00:33:22;;;;;;;;;;;4.20;91.20;;;;;;5007706;28;19936;-71
2022/02/06 00:43:19;;;;;;;;;;;4.30;90.90;;;;;;4994058;28;19921;-71
2022/02/06 00:45:45;;;;;;;;;;;4.30;90.80;;;;;;5022587;28;19909;-71
2022/02/06 00:48:11;;;;;;;;;;;4.30;90.90;;;;;;5022547;28;19910;-71
2022/02/06 00:50:41;;;;;;;;;;;4.30;90.80;;;;;;4988678;28;20064;-69
2022/02/06 00:53:14;;;;;;;;;;;4.30;90.70;;;;;;5005596;28;19909;-69
2022/02/06 00:55:40;;;;;;;;;;;4.30;90.30;;;;;;5022229;28;19916;-71
2022/02/06 00:58:06;;;;;;;;;;;4.40;90.30;;;;;;5022329;28;19917;-70
2022/02/06 01:00:31;;;;;;;;;;;4.40;90.40;;;;;;5022301;28;19913;-71
2022/02/06 01:02:57;;;;;;;;;;;4.40;90.30;;;;;;4988610;28;20123;-71
2022/02/06 01:05:23;;;;;;;;;;;4.40;90.30;;;;;;5022279;28;19936;-71
2022/02/06 01:07:50;;;;;;;;;;;4.40;90.20;;;;;;5022176;28;19984;-71
2022/02/06 01:10:16;;;;;;;;;;;4.40;90.20;;;;;;5021901;28;19955;-73
2022/02/06 01:12:46;;;;;;;;;;;4.40;89.90;;;;;;5004479;28;19913;-73
2022/02/06 01:15:23;;;;;;;;;;;4.40;90.10;;;;;;5022273;28;19933;-73
2022/02/06 01:18:00;;;;;;;;;;;4.50;89.90;;;;;;5022195;28;19918;-73
2022/02/06 01:20:41;;;;;;;;;;;4.40;89.80;;;;;;5021453;28;19951;-72
2022/02/06 01:23:20;;;;;;;;;;;4.40;89.90;;;;;;4995299;28;19909;-72
2022/02/06 01:26:17;;;;;;;;;;;4.50;89.70;;;;;;5004455;28;19952;-72
2022/02/06 01:28:47;;;;;;;;;;;4.40;90.00;;;;;;5004502;28;19917;-73
2022/02/06 01:34:06;;;;;;;;;;;4.40;89.80;;;;;;4984673;28;19930;-73
2022/02/06 01:36:43;;;;;;;;;;;4.50;89.70;;;;;;4988936;28;19916;-73
2022/02/06 01:39:37;;;;;;;;;;;4.50;89.70;;;;;;4992968;28;20275;-73
2022/02/06 01:42:04;;;;;;;;;;;4.50;89.70;;;;;;5025268;28;19909;-73
2022/02/06 01:44:54;;;;;;;;;;;4.50;89.60;;;;;;5008272;28;19909;-74
2022/02/06 02:08:33;;;;;;;;;;;4.50;89.20;;;;;;5025219;28;19913;-72
2022/02/06 02:29:32;;;;;;;;;;;4.30;90.00;;;;;;5024520;28;19984;-73
2022/02/06 02:47:49;;;;;;;;;;;4.30;90.00;;;;;;5084201;28;20202;-68
2022/02/06 02:50:24;;;;;;;;;;;4.30;89.90;;;;;;5084283;28;19914;-68
2022/02/06 02:56:09;;;;;;;;;;;4.30;90.00;;;;;;5101915;28;19924;-68
2022/02/06 03:01:11;;;;;;;;;;;4.40;89.50;;;;;;5104226;28;20114;-68
2022/02/06 03:03:32;;;;;;;;;;;4.40;89.40;;;;;;5104030;28;20007;-68
2022/02/06 03:06:00;;;;;;;;;;;4.40;89.40;;;;;;5104208;28;19912;-66
2022/02/06 03:08:26;;;;;;;;;;;4.40;89.40;;;;;;5091488;28;19915;-66
2022/02/06 03:10:55;;;;;;;;;;;4.40;89.40;;;;;;5091981;28;20230;-66
2022/02/06 03:13:23;;;;;;;;;;;4.40;89.70;;;;;;5117812;28;19912;-66
2022/02/06 03:18:29;;;;;;;;;;;4.40;89.60;;;;;;5104322;28;19908;-65
2022/02/06 03:20:55;;;;;;;;;;;4.40;89.50;;;;;;5119658;28;19908;-68
2022/02/06 03:23:21;;;;;;;;;;;4.40;89.70;;;;;;5103858;28;19916;-66
2022/02/06 03:25:51;;;;;;;;;;;4.40;89.50;;;;;;5102838;28;19945;-66
2022/02/06 03:28:17;;;;;;;;;;;4.40;89.40;;;;;;5094246;28;19916;-66
2022/02/06 03:30:42;;;;;;;;;;;4.40;89.20;;;;;;5103131;28;19916;-66
2022/02/06 03:33:08;;;;;;;;;;;4.50;89.20;;;;;;5103492;28;20203;-66
2022/02/06 03:35:34;;;;;;;;;;;4.50;89.20;;;;;;5103694;28;19916;-66
2022/02/06 03:38:00;;;;;;;;;;;4.50;89.20;;;;;;5094451;28;19912;-67
2022/02/06 03:40:28;;;;;;;;;;;4.50;89.20;;;;;;5083256;28;19958;-67
2022/02/06 03:43:08;;;;;;;;;;;4.50;89.20;;;;;;5081825;28;19908;-66
2022/02/06 03:45:47;;;;;;;;;;;4.50;89.20;;;;;;5082476;28;19915;-66
2022/02/06 03:50:38;;;;;;;;;;;4.50;89.20;;;;;;5082842;28;20231;-67
2022/02/06 03:53:04;;;;;;;;;;;4.50;88.50;;;;;;5079486;28;19951;-67
2022/02/06 03:55:32;;;;;;;;;;;4.50;88.60;;;;;;5083046;28;19909;-66
2022/02/06 03:57:57;;;;;;;;;;;4.50;88.10;;;;;;5082745;28;19996;-66
2022/02/06 04:00:26;;;;;;;;;;;4.50;88.30;;;;;;5082880;28;20180;-66
2022/02/06 04:02:52;;;;;;;;;;;4.50;88.10;;;;;;5082593;28;19915;-67
2022/02/06 04:05:18;;;;;;;;;;;4.50;88.20;;;;;;5082803;28;19916;-67
2022/02/06 04:07:44;;;;;;;;;;;4.50;88.10;;;;;;5082458;28;19908;-66
2022/02/06 04:10:11;;;;;;;;;;;4.50;88.40;;;;;;5082667;28;19908;-67
2022/02/06 04:12:39;;;;;;;;;;;4.50;88.00;;;;;;5082269;28;19946;-67
2022/02/06 04:15:11;;;;;;;;;;;4.50;88.20;;;;;;5082660;28;19920;-66
2022/02/06 04:17:45;;;;;;;;;;;4.60;88.10;;;;;;5082783;28;20191;-66
2022/02/06 04:20:11;;;;;;;;;;;4.60;87.90;;;;;;5082590;28;19908;-66
2022/02/06 04:22:37;;;;;;;;;;;4.60;87.90;;;;;;5082195;28;19936;-66
2022/02/06 04:25:03;;;;;;;;;;;4.60;87.80;;;;;;5081406;28;19916;-67
2022/02/06 04:27:30;;;;;;;;;;;4.60;87.90;;;;;;5081265;28;19931;-66
2022/02/06 04:29:56;;;;;;;;;;;4.60;88.40;;;;;;5082565;28;20202;-66
2022/02/06 04:32:22;;;;;;;;;;;4.60;87.50;;;;;;5082249;28;19908;-66
2022/02/06 04:34:50;;;;;;;;;;;4.60;87.80;;;;;;5081370;28;19966;-66
2022/02/06 05:12:53;;;;;;;;;;;4.60;87.80;;;;;;5085879;28;20049;-67
2022/02/06 05:15:16;;;;;;;;;;;4.60;87.60;;;;;;5085953;28;19913;-67
2022/02/06 05:31:24;;;;;;;;;;;4.50;87.40;;;;;;5085528;28;19916;-68
2022/02/06 05:33:39;;;;;;;;;;;4.60;87.60;;;;;;5083746;28;19951;-67
2022/02/06 05:36:08;;;;;;;;;;;4.50;87.90;;;;;;5093370;28;19909;-67
2022/02/06 05:38:34;;;;;;;;;;;4.50;87.80;;;;;;5084774;28;19955;-67
2022/02/06 05:41:00;;;;;;;;;;;4.50;88.00;;;;;;5084115;28;19915;-67
2022/02/06 05:43:25;;;;;;;;;;;4.50;88.20;;;;;;5085368;28;19954;-67
2022/02/06 05:45:51;;;;;;;;;;;4.50;88.20;;;;;;5085306;28;19915;-68
2022/02/06 05:48:17;;;;;;;;;;;4.50;88.80;;;;;;5083935;28;19935;-68
2022/02/06 05:50:45;;;;;;;;;;;4.50;88.00;;;;;;5084653;28;19983;-68
2022/02/06 05:53:11;;;;;;;;;;;4.50;88.00;;;;;;5084976;28;19920;-68
2022/02/06 05:55:38;;;;;;;;;;;4.50;87.70;;;;;;5085200;28;20238;-68
2022/02/06 05:58:03;;;;;;;;;;;4.50;87.40;;;;;;5085117;28;19912;-68
2022/02/06 06:00:29;;;;;;;;;;;4.50;87.30;;;;;;5085044;28;19945;-67
2022/02/06 06:02:55;;;;;;;;;;;4.50;87.20;;;;;;5083800;28;19908;-67
2022/02/06 06:05:21;;;;;;;;;;;4.50;87.80;;;;;;5085078;28;19944;-67
2022/02/06 06:07:46;;;;;;;;;;;4.60;86.90;;;;;;5083909;28;19909;-67
2022/02/06 06:10:12;;;;;;;;;;;4.50;87.10;;;;;;5084947;28;19932;-67
2022/02/06 06:12:38;;;;;;;;;;;4.60;87.00;;;;;;5081670;28;20175;-67
2022/02/06 06:15:04;;;;;;;;;;;4.60;87.00;;;;;;5084960;28;20269;-66
2022/02/06 06:17:30;;;;;;;;;;;4.50;87.20;;;;;;5084862;28;19909;-66
2022/02/06 06:19:56;;;;;;;;;;;4.60;87.10;;;;;;5084792;28;19922;-66
2022/02/06 06:22:23;;;;;;;;;;;4.60;86.80;;;;;;5084672;28;19916;-66
2022/02/06 06:24:55;;;;;;;;;;;4.60;87.10;;;;;;5083395;28;20129;-66
2022/02/06 06:27:20;;;;;;;;;;;4.60;86.90;;;;;;5086079;28;19943;-67
2022/02/06 06:29:46;;;;;;;;;;;4.60;87.00;;;;;;5084286;28;19912;-67
2022/02/06 06:32:12;;;;;;;;;;;4.60;86.90;;;;;;5091610;28;19920;-66
2022/02/06 06:34:38;;;;;;;;;;;4.50;86.90;;;;;;5104741;28;20430;-67
2022/02/06 06:37:03;;;;;;;;;;;4.50;86.90;;;;;;5103679;28;20111;-67
2022/02/06 06:39:48;;;;;;;;;;;4.50;87.10;;;;;;5084137;28;19916;-66
2022/02/06 06:42:14;;;;;;;;;;;4.50;87.00;;;;;;5084187;28;19915;-67
2022/02/06 06:44:40;;;;;;;;;;;4.50;86.80;;;;;;5084337;28;19940;-68
2022/02/06 06:47:07;;;;;;;;;;;4.50;86.80;;;;;;5083704;28;19931;-67
2022/02/06 06:49:32;;;;;;;;;;;4.60;86.60;;;;;;5083039;28;19955;-67
2022/02/06 06:51:59;;;;;;;;;;;4.60;86.90;;;;;;5081750;28;20072;-67
2022/02/06 06:54:25;;;;;;;;;;;4.60;86.70;;;;;;5082718;28;20211;-67
2022/02/06 06:57:26;;;;;;;;;;;4.60;86.70;;;;;;5083979;28;19908;-67
2022/02/06 07:02:27;;;;;;;;;;;4.60;86.50;;;;;;5083871;28;20103;-67
2022/02/06 07:04:57;;;;;;;;;;;4.60;86.20;;;;;;5083030;28;19935;-67
2022/02/06 07:07:24;;;;;;;;;;;4.70;86.30;;;;;;5083666;28;19916;-67
2022/02/06 07:09:50;;;;;;;;;;;4.70;86.70;;;;;;5083475;28;19909;-67
2022/02/06 07:12:15;;;;;;;;;;;4.70;86.50;;;;;;5083401;28;19908;-67
2022/02/06 07:14:42;;;;;;;;;;;4.70;86.20;;;;;;5083668;28;19966;-68
2022/02/06 07:17:08;;;;;;;;;;;4.70;86.30;;;;;;5083524;28;19987;-67
2022/02/06 07:19:33;;;;;;;;;;;4.70;86.40;;;;;;5082718;28;19916;-67
2022/02/06 07:22:00;;;;;;;;;;;4.70;86.40;;;;;;5083346;28;19975;-67
2022/02/06 07:24:27;;;;;;;;;;;4.70;86.60;;;;;;5083176;28;20360;-68
2022/02/06 07:26:57;;;;;;;;;;;4.70;86.60;;;;;;5080065;28;19987;-67
2022/02/06 07:29:23;;;;;;;;;;;4.70;86.50;;;;;;5072949;28;19920;-68
2022/02/06 07:31:50;;;;;;;;;;;4.70;86.50;;;;;;5073493;28;19915;-68
2022/02/06 07:34:16;;;;;;;;;;;4.80;86.10;;;;;;5083197;28;19959;-68
2022/02/06 07:36:42;;;;;;;;;;;4.80;86.20;;;;;;5083177;28;19917;-68
2022/02/06 07:39:08;;;;;;;;;;;4.90;85.80;;;;;;5082797;28;19991;-68
2022/02/06 07:41:33;;;;;;;;;;;5.00;85.70;;;;;;5082911;28;19981;-67
2022/02/06 07:43:59;;;;;;;;;;;5.00;85.70;;;;;;5073639;28;19913;-68
2022/02/06 07:46:30;;;;;;;;;;;5.00;85.80;;;;;;5063146;28;19976;-68
2022/02/06 07:49:02;;;;;;;;;;;5.00;85.90;;;;;;5082726;28;19932;-68
2022/02/06 07:51:28;;;;;;;;;;;5.10;85.30;;;;;;5082572;28;20123;-68
2022/02/06 07:53:53;;;;;;;;;;;5.10;85.20;;;;;;5082787;28;19917;-69
2022/02/06 07:56:19;;;;;;;;;;;5.20;85.40;;;;;;5082926;28;19919;-68
2022/02/06 07:58:45;;;;;;;;;;;5.20;85.90;;;;;;5082857;28;19915;-68
2022/02/06 08:01:10;;;;;;;;;;;5.30;85.20;;;;;;5082638;28;19961;-68
2022/02/06 08:03:36;;;;;;;;;;;5.30;85.00;;;;;;5082997;28;19932;-68
2022/02/06 08:06:02;;;;;;;;;;;5.40;85.30;;;;;;5082806;28;20336;-68
2022/02/06 08:08:27;;;;;;;;;;;5.40;85.10;;;;;;5081103;28;19987;-68
2022/02/06 08:10:59;;;;;;;;;;;5.50;85.20;;;;;;5064722;28;20171;-68
2022/02/06 08:13:38;;;;;;;;;;;5.50;85.20;;;;;;5063350;28;19913;-68
2022/02/06 08:16:04;;;;;;;;;;;5.60;85.00;;;;;;5062703;28;19909;-68
2022/02/06 08:18:30;;;;;;;;;;;5.60;84.60;;;;;;5078571;28;19909;-67
2022/02/06 08:20:56;;;;;;;;;;;5.60;84.30;;;;;;5082352;28;19959;-68
2022/02/06 08:23:21;;;;;;;;;;;5.60;84.20;;;;;;5070472;28;19935;-67
2022/02/06 08:25:47;;;;;;;;;;;5.70;83.80;;;;;;5067643;28;19987;-68
2022/02/06 08:28:13;;;;;;;;;;;5.70;83.70;;;;;;5064635;28;20034;-68
2022/02/06 08:30:39;;;;;;;;;;;5.70;83.90;;;;;;5067343;28;19919;-67
2022/02/06 08:33:07;;;;;;;;;;;5.70;83.50;;;;;;5064911;28;20200;-67
2022/02/06 08:35:33;;;;;;;;;;;5.70;83.60;;;;;;5062370;28;19946;-68
2022/02/06 08:37:58;;;;;;;;;;;5.70;83.60;;;;;;5062024;28;19920;-68
2022/02/06 08:40:24;;;;;;;;;;;5.70;83.70;;;;;;5062343;28;19912;-66
2022/02/06 08:42:50;;;;;;;;;;;5.80;83.90;;;;;;5062082;28;19908;-65
2022/02/06 08:45:16;;;;;;;;;;;5.80;84.20;;;;;;5062311;28;20207;-65
2022/02/06 08:47:46;;;;;;;;;;;5.90;84.70;;;;;;5071580;28;19908;-65
2022/02/06 08:50:12;;;;;;;;;;;5.80;84.90;;;;;;5081316;28;19908;-66
2022/02/06 08:52:38;;;;;;;;;;;5.80;85.80;;;;;;5081999;28;19917;-67
2022/02/06 08:55:06;;;;;;;;;;;5.80;85.40;;;;;;5089961;28;19923;-67
2022/02/06 08:57:32;;;;;;;;;;;5.80;85.50;;;;;;5093923;28;19908;-66
2022/02/06 08:59:58;;;;;;;;;;;5.80;84.90;;;;;;5102525;28;19916;-67
2022/02/06 09:02:24;;;;;;;;;;;5.80;84.60;;;;;;5099681;28;19987;-67
2022/02/06 09:04:50;;;;;;;;;;;5.90;84.70;;;;;;5093971;28;20106;-67
2022/02/06 09:07:16;;;;;;;;;;;5.90;85.10;;;;;;5102322;28;19915;-68
2022/02/06 09:09:47;;;;;;;;;;;6.00;84.60;;;;;;5102188;28;19908;-67
2022/02/06 09:12:13;;;;;;;;;;;6.10;84.10;;;;;;5092191;28;19916;-68
2022/02/06 09:14:39;;;;;;;;;;;6.20;84.20;;;;;;5094334;28;19912;-68
2022/02/06 09:17:04;;;;;;;;;;;6.10;83.40;;;;;;5102219;28;19973;-68
2022/02/06 09:19:31;;;;;;;;;;;6.20;83.40;;;;;;5101076;28;19957;-68
2022/02/06 09:21:59;;;;;;;;;;;6.30;83.70;;;;;;5100920;28;19997;-67
2022/02/06 09:24:25;;;;;;;;;;;6.30;82.60;;;;;;5102309;28;19908;-68
2022/02/06 09:26:50;;;;;;;;;;;6.50;82.60;;;;;;5084094;28;19935;-66
2022/02/06 09:29:16;;;;;;;;;;;6.50;82.70;;;;;;5102194;28;19953;-66
2022/02/06 09:31:42;;;;;;;;;;;6.50;82.60;;;;;;5100524;28;19916;-66
2022/02/06 09:36:34;;;;;;;;;;;6.40;83.20;;;;;;5094885;28;19908;-66
2022/02/06 09:39:00;;;;;;;;;;;6.40;84.20;;;;;;5096904;28;19912;-67
2022/02/06 09:41:26;;;;;;;;;;;6.40;85.30;;;;;;5091362;28;20167;-67
2022/02/06 09:43:52;;;;;;;;;;;6.40;85.60;;;;;;5084988;28;19908;-67
2022/02/06 09:46:18;;;;;;;;;;;6.30;85.50;;;;;;5085494;28;19954;-67
2022/02/06 09:48:44;;;;;;;;;;;6.30;86.80;;;;;;5084315;28;19908;-67
2022/02/06 09:51:10;;;;;;;;;;;6.30;87.30;;;;;;5066588;28;20271;-67
2022/02/06 09:53:35;;;;;;;;;;;6.30;87.90;;;;;;5084863;28;19973;-67
2022/02/06 09:56:07;;;;;;;;;;;6.20;88.50;;;;;;5085047;28;20147;-68
2022/02/06 10:01:05;;;;;;;;;;;6.30;89.40;;;;;;5083986;28;19917;-69
2022/02/06 10:03:31;;;;;;;;;;;6.30;89.90;;;;;;5067265;28;19915;-69
2022/02/06 10:05:57;;;;;;;;;;;6.40;90.10;;;;;;5083042;28;19909;-68
2022/02/06 10:08:32;;;;;;;;;;;6.30;89.50;;;;;;5074764;28;20170;-69
2022/02/06 10:10:58;;;;;;;;;;;6.30;90.00;;;;;;5096133;28;20177;-69
2022/02/06 10:13:25;;;;;;;;;;;6.30;90.10;;;;;;5084847;28;19987;-70
2022/02/06 10:15:50;;;;;;;;;;;6.30;90.00;;;;;;5085340;28;20045;-66
2022/02/06 10:18:16;;;;;;;;;;;6.50;90.20;;;;;;5084803;28;19909;-66
2022/02/06 10:20:45;;;;;;;;;;;6.40;89.20;;;;;;5084604;28;19913;-67
2022/02/06 10:23:34;;;;;;;;;;;6.50;89.70;;;;;;5083747;28;19908;-66
2022/02/06 10:26:08;;;;;;;;;;;6.50;88.50;;;;;;5084690;28;19909;-66
2022/02/06 10:31:01;;;;;;;;;;;6.50;88.40;;;;;;5084351;28;20171;-66
2022/02/06 10:33:50;;;;;;;;;;;6.60;88.40;;;;;;5066890;28;20189;-67
2022/02/06 10:36:35;;;;;;;;;;;6.70;87.70;;;;;;5078579;28;19919;-66
2022/02/06 10:39:02;;;;;;;;;;;6.80;87.00;;;;;;5084478;28;19912;-66
2022/02/06 10:41:28;;;;;;;;;;;6.80;86.10;;;;;;5082888;28;19943;-66
2022/02/06 10:44:05;;;;;;;;;;;6.90;85.60;;;;;;5084415;28;19916;-66
2022/02/06 10:46:44;;;;;;;;;;;6.80;86.30;;;;;;5084244;28;19940;-66
2022/02/06 10:49:14;;;;;;;;;;;6.80;85.90;;;;;;5083300;28;19946;-66
2022/02/06 10:52:02;;;;;;;;;;;6.90;85.70;;;;;;5083953;28;19954;-66
2022/02/06 10:54:28;;;;;;;;;;;6.90;85.80;;;;;;5083774;28;20248;-67
2022/02/06 10:57:10;;;;;;;;;;;6.90;86.50;;;;;;5083214;28;20007;-66
2022/02/06 10:59:42;;;;;;;;;;;6.90;85.60;;;;;;5083883;28;19943;-67
2022/02/06 11:02:20;;;;;;;;;;;7.00;85.50;;;;;;5083061;28;19920;-66
2022/02/06 11:04:56;;;;;;;;;;;7.00;84.80;;;;;;5082646;28;20001;-66
2022/02/06 11:07:22;;;;;;;;;;;7.10;84.50;;;;;;5083196;28;19908;-67
2022/02/06 11:09:47;;;;;;;;;;;7.20;84.30;;;;;;5082592;28;19916;-67
2022/02/06 11:12:22;;;;;;;;;;;7.20;84.30;;;;;;5082126;28;19908;-66
2022/02/06 11:14:59;;;;;;;;;;;7.20;84.40;;;;;;5076559;28;19927;-67
2022/02/06 11:17:26;;;;;;;;;;;7.10;84.60;;;;;;5063130;28;19913;-67
2022/02/06 11:20:09;;;;;;;;;;;7.10;85.60;;;;;;5063389;28;19919;-65
2022/02/06 11:22:36;;;;;;;;;;;7.10;84.90;;;;;;5063289;28;19915;-65
2022/02/06 11:25:05;;;;;;;;;;;7.10;85.10;;;;;;5063020;28;19969;-66
2022/02/06 11:27:31;;;;;;;;;;;7.10;84.90;;;;;;5062998;28;19909;-66
2022/02/06 11:29:57;;;;;;;;;;;7.10;85.80;;;;;;5062095;28;19977;-65
2022/02/06 11:32:26;;;;;;;;;;;7.10;86.70;;;;;;5080061;28;19998;-66
2022/02/06 11:34:52;;;;;;;;;;;7.10;86.50;;;;;;5089031;28;19912;-66
2022/02/06 11:43:55;;;;;;;;;;;7.00;89.10;;;;;;5062877;28;19915;-66
2022/02/06 11:46:42;;;;;;;;;;;7.10;88.80;;;;;;5040834;28;20088;-65
2022/02/06 11:49:13;;;;;;;;;;;7.00;88.10;;;;;;5061701;28;19917;-66
2022/02/06 11:51:49;;;;;;;;;;;7.00;88.50;;;;;;5061288;28;19912;-66
2022/02/06 11:54:34;;;;;;;;;;;7.00;88.90;;;;;;5062990;28;20111;-66
2022/02/06 11:57:12;;;;;;;;;;;7.10;88.60;;;;;;5062526;28;19940;-67
2022/02/06 11:59:38;;;;;;;;;;;7.00;89.10;;;;;;5063018;28;19959;-65
2022/02/06 12:02:34;;;;;;;;;;;7.00;89.70;;;;;;5062354;28;19909;-66
2022/02/06 12:05:35;;;;;;;;;;;7.00;89.10;;;;;;5053338;28;19936;-66
2022/02/06 12:08:10;;;;;;;;;;;7.00;89.80;;;;;;5020628;28;19910;-67
2022/02/06 12:10:35;;;;;;;;;;;7.10;89.70;;;;;;5057425;28;19932;-66
2022/02/06 12:13:25;;;;;;;;;;;7.10;89.20;;;;;;5082195;28;20142;-66
2022/02/06 12:15:58;;;;;;;;;;;7.10;88.50;;;;;;5075234;28;19916;-66
2022/02/06 12:18:28;;;;;;;;;;;7.20;88.00;;;;;;5062412;28;19954;-66
2022/02/06 12:20:57;;;;;;;;;;;7.20;87.20;;;;;;5062360;28;19908;-66
2022/02/06 12:23:46;;;;;;;;;;;7.20;87.90;;;;;;5062431;28;19928;-66
2022/02/06 12:26:29;;;;;;;;;;;7.20;88.10;;;;;;5062467;28;19917;-66
2022/02/06 12:28:56;;;;;;;;;;;7.20;87.60;;;;;;5062294;28;19948;-66
2022/02/06 12:31:28;;;;;;;;;;;7.20;87.50;;;;;;5062015;28;19909;-66
2022/02/06 12:33:59;;;;;;;;;;;7.30;87.10;;;;;;5062125;28;20270;-66
2022/02/06 12:39:22;;;;;;;;;;;7.30;87.70;;;;;;5062473;28;19913;-66
2022/02/06 12:41:48;;;;;;;;;;;7.30;89.00;;;;;;5073481;28;20214;-66
2022/02/06 12:44:15;;;;;;;;;;;7.30;89.00;;;;;;5081773;28;19908;-66
2022/02/06 12:46:41;;;;;;;;;;;7.30;88.40;;;;;;5067460;28;19913;-66
2022/02/06 12:49:07;;;;;;;;;;;7.20;88.00;;;;;;5050884;28;19986;-66
2022/02/06 12:51:35;;;;;;;;;;;7.20;89.10;;;;;;5061861;28;19952;-67
2022/02/06 12:54:05;;;;;;;;;;;7.20;88.70;;;;;;5062381;28;19932;-68
2022/02/06 12:56:33;;;;;;;;;;;7.10;89.10;;;;;;5062134;28;19909;-67
2022/02/06 12:58:59;;;;;;;;;;;7.10;88.90;;;;;;5062010;28;20261;-67
2022/02/06 13:01:38;;;;;;;;;;;7.00;89.90;;;;;;5060649;28;19915;-67
2022/02/06 13:04:04;;;;;;;;;;;7.00;89.80;;;;;;5061005;28;19916;-65
2022/02/06 13:06:34;;;;;;;;;;;7.00;90.20;;;;;;5062205;28;19979;-68
2022/02/06 13:08:59;;;;;;;;;;;7.00;89.90;;;;;;5087052;28;19975;-67
2022/02/06 13:11:35;;;;;;;;;;;7.00;90.10;;;;;;5092013;28;19916;-67
2022/02/06 13:14:11;;;;;;;;;;;7.00;90.40;;;;;;5082076;28;19934;-64
2022/02/06 13:19:45;;;;;;;;;;;6.90;90.80;;;;;;5086143;28;19923;-66
2022/02/06 13:29:59;;;;;;;;;;;6.70;91.00;;;;;;5094034;28;19912;-66
2022/02/06 13:32:36;;;;;;;;;;;6.80;91.00;;;;;;5084495;28;19953;-66
2022/02/06 13:37:59;;;;;;;;;;;6.70;91.70;;;;;;5052474;28;20616;-70
2022/02/06 13:40:31;;;;;;;;;;;6.60;92.00;;;;;;5076533;28;19908;-71
2022/02/06 13:43:09;;;;;;;;;;;6.60;92.10;;;;;;5064764;28;19909;-76
2022/02/06 13:45:35;;;;;;;;;;;6.60;92.60;;;;;;5048607;28;19912;-71
2022/02/06 13:48:01;;;;;;;;;;;6.50;92.60;;;;;;5080879;28;19909;-70
2022/02/06 13:50:28;;;;;;;;;;;6.50;92.80;;;;;;5065247;28;20235;-71
2022/02/06 13:53:11;;;;;;;;;;;6.50;92.70;;;;;;5065108;28;20146;-69
2022/02/06 13:56:03;;;;;;;;;;;6.50;93.00;;;;;;5065399;28;20112;-68
2022/02/06 13:58:29;;;;;;;;;;;6.50;93.30;;;;;;5065158;28;19909;-71
2022/02/06 14:01:06;;;;;;;;;;;6.40;93.60;;;;;;5064190;28;19909;-71
2022/02/06 14:03:52;;;;;;;;;;;6.40;93.40;;;;;;5065118;28;19916;-75
2022/02/06 14:06:32;;;;;;;;;;;6.40;93.50;;;;;;5065273;28;19992;-71
2022/02/06 14:09:01;;;;;;;;;;;6.40;93.70;;;;;;5067927;28;20176;-70
2022/02/06 14:11:30;;;;;;;;;;;6.40;93.80;;;;;;5081185;28;19920;-71
2022/02/06 14:14:20;;;;;;;;;;;6.30;94.10;;;;;;5084554;28;19984;-69
2022/02/06 14:16:50;;;;;;;;;;;6.30;94.40;;;;;;5084910;28;19946;-67
2022/02/06 14:19:43;;;;;;;;;;;6.30;94.50;;;;;;5083601;28;19912;-67
2022/02/06 14:22:15;;;;;;;;;;;6.30;94.50;;;;;;5084531;28;19908;-70
2022/02/06 14:24:51;;;;;;;;;;;6.20;94.90;;;;;;5067373;28;20115;-66
2022/02/06 14:27:53;;;;;;;;;;;6.20;95.20;;;;;;5084068;28;19923;-70
2022/02/06 14:30:27;;;;;;;;;;;6.20;95.00;;;;;;5002813;28;19909;-71
2022/02/06 14:33:06;;;;;;;;;;;6.10;95.40;;;;;;5053407;28;19923;-73
2022/02/06 14:35:54;;;;;;;;;;;6.10;95.60;;;;;;5084461;28;19912;-70
2022/02/06 14:38:40;;;;;;;;;;;6.00;95.80;;;;;;5063818;28;19912;-66
2022/02/06 14:41:18;;;;;;;;;;;6.00;95.70;;;;;;5056991;28;19940;-68
2022/02/06 14:43:58;;;;;;;;;;;6.00;96.00;;;;;;5064159;28;20148;-68
2022/02/06 14:46:27;;;;;;;;;;;6.00;96.00;;;;;;5064290;28;20034;-71
2022/02/06 14:48:53;;;;;;;;;;;6.00;95.60;;;;;;5062871;28;19923;-72
2022/02/06 14:51:19;;;;;;;;;;;6.00;95.90;;;;;;5062675;28;20172;-71
2022/02/06 14:53:45;;;;;;;;;;;6.00;95.80;;;;;;5070634;28;19916;-69
2022/02/06 14:56:12;;;;;;;;;;;6.00;95.30;;;;;;5063999;28;20171;-68
2022/02/06 14:58:38;;;;;;;;;;;6.00;95.50;;;;;;5063558;28;19917;-68
2022/02/06 15:01:04;;;;;;;;;;;6.10;95.60;;;;;;5063553;28;19936;-65
2022/02/06 15:03:30;;;;;;;;;;;6.10;95.70;;;;;;5062149;28;19909;-68
2022/02/06 15:05:56;;;;;;;;;;;6.10;95.70;;;;;;5062613;28;20111;-69
2022/02/06 15:08:21;;;;;;;;;;;6.10;95.30;;;;;;5062186;28;19909;-69
2022/02/06 15:10:49;;;;;;;;;;;6.10;95.40;;;;;;5075971;28;19932;-66
2022/02/06 15:13:14;;;;;;;;;;;6.00;96.00;;;;;;5080323;28;19915;-68
2022/02/06 15:15:45;;;;;;;;;;;6.00;96.20;;;;;;5081906;28;20112;-67
2022/02/06 15:20:46;;;;;;;;;;;5.90;96.00;;;;;;5082923;28;19943;-68
2022/02/06 15:23:12;;;;;;;;;;;5.90;96.20;;;;;;5082875;28;19971;-67
2022/02/06 15:25:37;;;;;;;;;;;6.00;96.10;;;;;;5082859;28;19921;-67
2022/02/06 15:28:03;;;;;;;;;;;6.00;96.20;;;;;;5082709;28;19908;-67
2022/02/06 15:30:29;;;;;;;;;;;6.00;96.20;;;;;;5082898;28;19908;-67
2022/02/06 15:32:55;;;;;;;;;;;5.90;96.30;;;;;;5082529;28;19909;-68
2022/02/06 15:35:22;;;;;;;;;;;5.90;96.40;;;;;;5081365;28;20463;-66
2022/02/06 15:37:48;;;;;;;;;;;5.80;96.10;;;;;;5082804;28;19984;-66
2022/02/06 15:40:17;;;;;;;;;;;5.90;96.40;;;;;;5072899;28;19982;-66
2022/02/06 15:42:46;;;;;;;;;;;5.90;96.20;;;;;;5066344;28;19917;-66
2022/02/06 15:45:12;;;;;;;;;;;5.90;95.90;;;;;;5077698;28;19908;-66
2022/02/06 15:47:39;;;;;;;;;;;5.90;96.00;;;;;;5081780;28;19909;-66
2022/02/06 15:50:06;;;;;;;;;;;5.90;95.80;;;;;;5082160;28;19912;-66
2022/02/06 15:52:32;;;;;;;;;;;5.90;95.80;;;;;;5082752;28;19912;-66
2022/02/06 15:54:58;;;;;;;;;;;5.90;95.50;;;;;;5081525;28;19916;-66
2022/02/06 15:57:24;;;;;;;;;;;5.90;95.90;;;;;;5082933;28;20030;-67
2022/02/06 15:59:51;;;;;;;;;;;5.90;95.80;;;;;;5082513;28;19958;-66
2022/02/06 16:02:17;;;;;;;;;;;5.90;95.60;;;;;;5077653;28;19919;-67
2022/02/06 16:04:43;;;;;;;;;;;5.90;95.70;;;;;;5065499;28;20120;-66
2022/02/06 16:07:09;;;;;;;;;;;5.80;95.80;;;;;;5079797;28;19908;-67
2022/02/06 16:09:35;;;;;;;;;;;5.80;96.00;;;;;;5081932;28;19943;-66
2022/02/06 16:12:06;;;;;;;;;;;5.80;95.70;;;;;;5071745;28;20115;-66
2022/02/06 16:14:35;;;;;;;;;;;5.80;95.70;;;;;;5082419;28;19909;-66
2022/02/06 16:17:01;;;;;;;;;;;5.80;95.50;;;;;;5081314;28;20146;-66
2022/02/06 16:19:27;;;;;;;;;;;5.80;95.60;;;;;;5081709;28;19912;-66
2022/02/06 16:21:52;;;;;;;;;;;5.80;95.90;;;;;;5082044;28;19939;-67
2022/02/06 16:24:23;;;;;;;;;;;5.80;95.90;;;;;;5081838;28;19909;-67
2022/02/06 16:26:49;;;;;;;;;;;5.80;96.10;;;;;;5082603;28;19908;-68
2022/02/06 16:29:15;;;;;;;;;;;5.70;96.00;;;;;;5059747;28;20219;-68
2022/02/06 16:31:41;;;;;;;;;;;5.70;96.10;;;;;;5060566;28;19984;-67
2022/02/06 16:34:06;;;;;;;;;;;5.70;95.70;;;;;;5063175;28;20038;-67
2022/02/06 16:36:34;;;;;;;;;;;5.70;96.00;;;;;;5082458;28;20215;-67
2022/02/06 16:39:00;;;;;;;;;;;5.70;96.10;;;;;;5080538;28;19916;-67
2022/02/06 16:41:26;;;;;;;;;;;5.70;96.30;;;;;;5070751;28;19953;-67
2022/02/06 16:43:52;;;;;;;;;;;5.70;96.10;;;;;;5072941;28;19908;-68
2022/02/06 16:46:18;;;;;;;;;;;5.70;96.10;;;;;;5082423;28;20096;-67
2022/02/06 16:48:44;;;;;;;;;;;5.70;96.20;;;;;;5080811;28;19957;-67
2022/02/06 16:51:11;;;;;;;;;;;5.70;96.00;;;;;;5082124;28;19915;-67
2022/02/06 16:53:36;;;;;;;;;;;5.70;95.70;;;;;;5085305;28;19980;-67
2022/02/06 16:56:02;;;;;;;;;;;5.80;95.50;;;;;;5084145;28;19931;-67
2022/02/06 16:58:28;;;;;;;;;;;5.80;95.60;;;;;;5085921;28;19917;-67
2022/02/06 17:00:54;;;;;;;;;;;5.80;95.40;;;;;;5085539;28;19981;-67
2022/02/06 17:03:19;;;;;;;;;;;5.70;95.20;;;;;;5085450;28;19940;-67
2022/02/06 17:05:45;;;;;;;;;;;5.80;95.30;;;;;;5085817;28;19958;-67
2022/02/06 17:08:11;;;;;;;;;;;5.80;95.30;;;;;;5079178;28;19913;-67
2022/02/06 17:10:38;;;;;;;;;;;5.80;95.20;;;;;;5075871;28;20115;-68
2022/02/06 17:13:05;;;;;;;;;;;5.90;94.80;;;;;;5073380;28;19913;-68
2022/02/06 17:15:30;;;;;;;;;;;5.90;95.00;;;;;;5065646;28;19924;-68
2022/02/06 17:17:56;;;;;;;;;;;5.90;95.00;;;;;;5065610;28;19909;-67
2022/02/06 17:20:22;;;;;;;;;;;6.00;94.70;;;;;;5064197;28;19914;-67
2022/02/06 17:22:48;;;;;;;;;;;5.90;94.80;;;;;;5072742;28;19953;-68
2022/02/06 17:25:14;;;;;;;;;;;5.90;94.50;;;;;;5084547;28;19957;-68
2022/02/06 17:27:40;;;;;;;;;;;6.00;94.70;;;;;;5085691;28;19909;-68
2022/02/06 17:30:06;;;;;;;;;;;6.00;94.40;;;;;;5078469;28;19921;-71
2022/02/06 17:32:31;;;;;;;;;;;6.00;94.70;;;;;;5078138;28;20135;-69